Time;durP1;ratioP1;P1;durP2;ratioP2;P2;SDS_P1;SDS_P2;PMS_P1;PMS_P2;Temp;Humidity;BMP_temperature;BMP_pressure;BME280_temperature;BME280_humidity;BME280_pressure;Samples;Min_cycle;Max_cycle;Signal;HPM_P1;HPM_P2
2023/09/03 00:01:07;;;;;;;3.47;2.20;;;18.50;99.90;;;;;;4965494;28;20027;-73
2023/09/03 00:03:33;;;;;;;5.38;2.80;;;18.50;99.90;;;;;;4968386;28;20381;-73
2023/09/03 00:05:59;;;;;;;4.00;2.50;;;18.40;99.90;;;;;;4964843;28;20049;-73
2023/09/03 00:08:26;;;;;;;4.63;2.00;;;18.30;99.90;;;;;;4963631;28;20023;-72
2023/09/03 00:10:52;;;;;;;4.32;2.20;;;18.30;99.90;;;;;;4966104;28;20466;-73
2023/09/03 00:13:21;;;;;;;2.80;1.98;;;18.30;99.90;;;;;;4968181;28;20302;-73
2023/09/03 00:15:50;;;;;;;5.55;2.50;;;18.20;99.90;;;;;;4967314;28;20035;-73
2023/09/03 00:18:16;;;;;;;5.10;2.25;;;18.20;99.90;;;;;;4967667;28;20030;-74
2023/09/03 00:21:01;;;;;;;4.05;2.00;;;18.10;99.90;;;;;;4966764;28;20033;-75
2023/09/03 00:23:27;;;;;;;6.30;2.20;;;18.10;99.90;;;;;;4962584;28;20036;-74
2023/09/03 00:26:00;;;;;;;3.60;2.20;;;18.10;99.90;;;;;;4961765;28;20111;-75
2023/09/03 00:28:26;;;;;;;6.07;2.38;;;18.10;99.90;;;;;;4965620;28;20420;-74
2023/09/03 00:31:08;;;;;;;7.65;2.60;;;18.00;99.90;;;;;;4966539;28;20117;-74
2023/09/03 00:33:34;;;;;;;9.07;2.60;;;18.00;99.90;;;;;;4952472;28;20173;-74
2023/09/03 00:36:03;;;;;;;3.70;2.60;;;18.00;99.90;;;;;;4968437;28;20355;-74
2023/09/03 00:38:29;;;;;;;5.82;2.90;;;18.00;99.90;;;;;;4967212;28;20110;-74
2023/09/03 00:40:55;;;;;;;4.85;2.45;;;17.90;99.90;;;;;;4967946;28;20094;-74
2023/09/03 00:43:21;;;;;;;3.53;2.20;;;17.90;99.90;;;;;;4968006;28;20058;-74
2023/09/03 00:45:48;;;;;;;4.13;2.28;;;17.90;99.90;;;;;;4968190;28;20035;-75
2023/09/03 00:48:20;;;;;;;3.95;1.95;;;18.00;99.90;;;;;;4969551;28;20202;-74
2023/09/03 00:50:47;;;;;;;4.28;2.50;;;17.90;99.90;;;;;;4967956;28;20027;-73
2023/09/03 00:53:15;;;;;;;3.03;1.92;;;17.90;99.90;;;;;;4968286;28;20038;-74
2023/09/03 00:55:41;;;;;;;5.10;1.83;;;17.90;99.90;;;;;;4966332;28;20026;-76
2023/09/03 00:58:11;;;;;;;2.65;1.73;;;17.90;99.90;;;;;;4968278;28;20453;-75
2023/09/03 01:00:43;;;;;;;3.33;1.65;;;17.90;99.90;;;;;;4965570;28;20041;-74
2023/09/03 01:03:13;;;;;;;6.82;1.90;;;17.80;99.90;;;;;;4964125;28;20102;-75
2023/09/03 01:05:39;;;;;;;3.28;1.75;;;17.80;99.90;;;;;;4964138;28;20018;-75
2023/09/03 01:08:05;;;;;;;3.45;1.70;;;17.70;99.90;;;;;;4965267;28;20510;-73
2023/09/03 01:11:04;;;;;;;5.65;2.20;;;17.70;99.90;;;;;;4966151;28;20039;-73
2023/09/03 01:13:45;;;;;;;3.03;1.80;;;17.60;99.90;;;;;;4943780;28;20047;-74
2023/09/03 01:16:20;;;;;;;3.17;2.30;;;17.60;99.90;;;;;;4964414;28;20027;-74
2023/09/03 01:18:50;;;;;;;7.32;1.95;;;17.60;99.90;;;;;;4966604;28;20551;-74
2023/09/03 01:21:35;;;;;;;4.70;2.05;;;17.60;99.90;;;;;;4966055;28;20035;-74
2023/09/03 01:24:41;;;;;;;4.15;2.20;;;17.60;99.90;;;;;;4967316;28;20081;-74
2023/09/03 01:27:23;;;;;;;5.57;2.45;;;17.60;99.90;;;;;;4969690;28;20023;-74
2023/09/03 01:29:50;;;;;;;3.92;1.48;;;17.60;99.90;;;;;;4969213;28;20033;-75
2023/09/03 01:32:17;;;;;;;3.10;1.60;;;17.60;99.90;;;;;;4968186;28;20026;-74
2023/09/03 01:34:47;;;;;;;3.25;1.98;;;17.70;99.90;;;;;;4967077;28;20117;-74
2023/09/03 01:37:14;;;;;;;3.70;2.17;;;17.60;99.90;;;;;;4969579;28;20047;-74
2023/09/03 01:39:42;;;;;;;3.97;1.90;;;17.60;99.90;;;;;;4970817;28;20023;-74
2023/09/03 01:42:11;;;;;;;4.38;2.28;;;17.60;99.90;;;;;;4952475;28;20031;-74
2023/09/03 01:44:41;;;;;;;3.08;2.15;;;17.50;99.90;;;;;;4966252;28;20389;-74
2023/09/03 01:47:44;;;;;;;4.53;2.20;;;17.50;99.90;;;;;;4967233;28;20027;-74
2023/09/03 01:50:29;;;;;;;6.90;2.20;;;17.50;99.90;;;;;;4967654;28;20035;-74
2023/09/03 01:53:17;;;;;;;3.38;2.05;;;17.40;99.90;;;;;;4969584;28;20030;-74
2023/09/03 01:55:51;;;;;;;5.50;2.25;;;17.40;99.90;;;;;;4969781;28;20027;-75
2023/09/03 01:58:19;;;;;;;5.72;2.33;;;17.30;99.90;;;;;;4949923;28;20062;-75
2023/09/03 02:00:46;;;;;;;4.22;2.58;;;17.30;99.90;;;;;;4970994;28;20117;-74
2023/09/03 02:03:16;;;;;;;5.15;2.20;;;17.30;99.90;;;;;;4969678;28;20026;-74
2023/09/03 02:05:41;;;;;;;4.32;2.30;;;17.20;99.90;;;;;;4952964;28;20041;-75
2023/09/03 02:08:07;;;;;;;3.90;2.50;;;17.20;99.90;;;;;;4966296;28;20141;-75
2023/09/03 02:10:35;;;;;;;6.15;2.38;;;17.20;99.90;;;;;;4965527;28;20031;-75
2023/09/03 02:13:04;;;;;;;3.05;2.08;;;17.20;99.90;;;;;;4967778;28;20034;-77
2023/09/03 02:15:29;;;;;;;3.35;1.90;;;17.20;99.90;;;;;;4968013;28;20113;-77
2023/09/03 02:17:55;;;;;;;6.53;2.08;;;17.10;99.90;;;;;;4970171;28;20445;-76
2023/09/03 02:20:21;;;;;;;5.50;2.63;;;17.10;99.90;;;;;;4965091;28;20145;-74
2023/09/03 02:22:46;;;;;;;4.28;2.13;;;17.10;99.90;;;;;;4969003;28;20039;-74
2023/09/03 02:25:15;;;;;;;6.32;2.53;;;17.10;99.90;;;;;;4970802;28;20454;-74
2023/09/03 02:27:40;;;;;;;5.88;3.10;;;17.10;99.90;;;;;;4968461;28;20066;-73
2023/09/03 02:30:07;;;;;;;7.32;3.65;;;17.10;99.90;;;;;;4970309;28;20497;-75
2023/09/03 02:32:35;;;;;;;7.88;4.95;;;17.00;99.90;;;;;;4968320;28;20054;-75
2023/09/03 02:35:01;;;;;;;9.45;5.10;;;17.10;99.90;;;;;;4969926;28;20027;-74
2023/09/03 02:37:26;;;;;;;8.40;3.80;;;17.10;99.90;;;;;;4968838;28;20019;-75
2023/09/03 02:39:52;;;;;;;5.45;3.50;;;17.10;99.90;;;;;;4971384;28;20281;-75
2023/09/03 02:42:17;;;;;;;3.28;2.38;;;17.10;99.90;;;;;;4970298;28;20077;-75
2023/09/03 02:44:46;;;;;;;2.88;2.03;;;17.10;99.90;;;;;;4969941;28;20097;-77
2023/09/03 02:47:12;;;;;;;4.28;2.03;;;17.10;99.90;;;;;;4970576;28;20393;-76
2023/09/03 02:49:41;;;;;;;4.70;1.90;;;17.00;99.90;;;;;;4972376;28;20105;-75
2023/09/03 02:52:06;;;;;;;4.78;1.80;;;17.00;99.90;;;;;;4955654;28;20457;-73
2023/09/03 02:54:32;;;;;;;7.50;2.80;;;17.00;99.90;;;;;;4968147;28;20062;-73
2023/09/03 02:57:00;;;;;;;5.18;1.70;;;17.00;99.90;;;;;;4970733;28;20035;-74
2023/09/03 02:59:28;;;;;;;5.07;1.77;;;17.00;99.90;;;;;;4967804;28;20015;-74
2023/09/03 03:01:57;;;;;;;2.95;1.92;;;17.00;99.90;;;;;;4963684;28;20051;-74
2023/09/03 03:04:28;;;;;;;2.92;1.90;;;17.00;99.90;;;;;;4969531;28;20030;-74
2023/09/03 03:06:54;;;;;;;4.75;1.70;;;17.00;99.90;;;;;;4968643;28;20030;-74
2023/09/03 03:09:20;;;;;;;3.05;2.05;;;17.00;99.90;;;;;;4968786;28;20041;-75
2023/09/03 03:11:46;;;;;;;2.83;1.85;;;17.00;99.90;;;;;;4968197;28;20482;-74
2023/09/03 03:14:13;;;;;;;2.72;1.70;;;17.00;99.90;;;;;;4963300;28;20156;-74
2023/09/03 03:16:39;;;;;;;4.88;1.92;;;17.00;99.90;;;;;;4953308;28;20478;-74
2023/09/03 03:19:04;;;;;;;3.70;1.77;;;16.90;99.90;;;;;;4967918;28;20089;-75
2023/09/03 03:21:30;;;;;;;5.68;2.03;;;16.90;99.90;;;;;;4964480;28;20538;-74
2023/09/03 03:24:03;;;;;;;4.57;2.03;;;16.90;99.90;;;;;;4971682;28;20163;-74
2023/09/03 03:26:31;;;;;;;4.60;2.13;;;16.90;99.90;;;;;;4967787;28;20027;-74
2023/09/03 03:28:56;;;;;;;4.28;2.22;;;16.90;99.90;;;;;;4965645;28;20026;-74
2023/09/03 03:31:23;;;;;;;4.28;1.92;;;16.80;99.90;;;;;;4965985;28;20034;-75
2023/09/03 03:33:51;;;;;;;6.40;1.70;;;16.80;99.90;;;;;;4969632;28;20490;-74
2023/09/03 03:36:21;;;;;;;5.05;1.77;;;16.80;99.90;;;;;;4964034;28;20481;-74
2023/09/03 03:38:47;;;;;;;4.00;2.22;;;16.70;99.90;;;;;;4966304;28;20481;-74
2023/09/03 03:41:20;;;;;;;3.67;1.60;;;16.70;99.90;;;;;;4968235;28;20037;-74
2023/09/03 03:43:47;;;;;;;3.00;1.85;;;16.70;99.90;;;;;;4969291;28;20069;-74
2023/09/03 03:46:15;;;;;;;4.35;1.73;;;16.60;99.90;;;;;;4964517;28;20035;-74
2023/09/03 03:48:42;;;;;;;3.45;1.92;;;16.60;99.90;;;;;;4946238;28;20169;-74
2023/09/03 03:51:07;;;;;;;6.88;1.70;;;16.60;99.90;;;;;;4947909;28;20157;-74
2023/09/03 03:53:36;;;;;;;3.78;1.92;;;16.60;99.90;;;;;;4966157;28;20624;-75
2023/09/03 03:56:20;;;;;;;4.22;2.20;;;16.50;99.90;;;;;;4963432;28;20023;-74
2023/09/03 03:58:46;;;;;;;2.60;1.70;;;16.60;99.90;;;;;;4967882;28;20019;-76
2023/09/03 04:01:16;;;;;;;5.10;1.75;;;16.60;99.90;;;;;;4961920;28;20111;-75
2023/09/03 04:03:42;;;;;;;6.82;1.65;;;16.60;99.90;;;;;;4964175;28;20069;-75
2023/09/03 04:06:11;;;;;;;3.05;1.67;;;16.60;99.90;;;;;;4947400;28;20030;-75
2023/09/03 04:08:47;;;;;;;3.90;1.67;;;16.50;99.90;;;;;;4965507;28;20027;-75
2023/09/03 04:11:15;;;;;;;2.13;1.30;;;16.50;99.90;;;;;;4966748;28;20446;-75
2023/09/03 04:13:41;;;;;;;4.18;1.73;;;16.50;99.90;;;;;;4966864;28;20401;-74
2023/09/03 04:16:09;;;;;;;3.78;1.50;;;16.50;99.90;;;;;;4965823;28;20101;-74
2023/09/03 04:18:38;;;;;;;4.20;2.67;;;16.40;99.90;;;;;;4964229;28;20019;-74
2023/09/03 04:21:04;;;;;;;4.45;1.83;;;16.50;99.90;;;;;;4959915;28;20567;-75
2023/09/03 04:23:35;;;;;;;3.63;1.90;;;16.40;99.90;;;;;;4969484;28;20059;-75
2023/09/03 04:26:05;;;;;;;4.32;1.75;;;16.40;99.90;;;;;;4969504;28;20503;-75
2023/09/03 04:28:31;;;;;;;6.60;2.42;;;16.40;99.90;;;;;;4965558;28;21236;-75
2023/09/03 04:31:03;;;;;;;5.20;2.38;;;16.40;99.90;;;;;;4968172;28;20030;-75
2023/09/03 04:33:36;;;;;;;3.80;2.47;;;16.40;99.90;;;;;;4965448;28;21512;-73
2023/09/03 04:36:05;;;;;;;4.55;2.58;;;16.40;99.90;;;;;;4966671;28;20389;-75
2023/09/03 04:38:30;;;;;;;4.13;2.42;;;16.40;99.90;;;;;;4963483;28;20027;-75
2023/09/03 04:41:06;;;;;;;4.10;2.40;;;16.40;99.90;;;;;;4964408;28;20061;-75
2023/09/03 04:43:43;;;;;;;6.90;2.53;;;16.30;99.90;;;;;;4955492;28;20072;-74
2023/09/03 04:46:09;;;;;;;4.70;2.38;;;16.30;99.90;;;;;;4968495;28;20038;-74
2023/09/03 04:48:38;;;;;;;6.18;2.63;;;16.30;99.90;;;;;;4969066;28;20027;-75
2023/09/03 04:51:07;;;;;;;6.22;2.33;;;16.30;99.90;;;;;;4969083;28;20035;-75
2023/09/03 04:53:33;;;;;;;4.65;2.67;;;16.30;99.90;;;;;;4966594;28;20951;-75
2023/09/03 04:55:59;;;;;;;4.28;2.60;;;16.30;99.90;;;;;;4950654;28;20400;-75
2023/09/03 04:58:25;;;;;;;5.38;3.10;;;16.30;99.90;;;;;;4955921;28;20524;-75
2023/09/03 05:00:51;;;;;;;7.13;2.60;;;16.20;99.90;;;;;;4970229;28;20019;-75
2023/09/03 05:03:16;;;;;;;3.78;2.60;;;16.30;99.90;;;;;;4970216;28;20063;-75
2023/09/03 05:05:43;;;;;;;4.15;2.30;;;16.30;99.90;;;;;;4973089;28;20023;-75
2023/09/03 05:08:09;;;;;;;2.85;1.67;;;16.30;99.90;;;;;;4972339;28;20507;-75
2023/09/03 05:10:47;;;;;;;4.13;2.45;;;16.30;99.90;;;;;;4954960;28;20489;-73
2023/09/03 05:13:13;;;;;;;3.13;1.60;;;16.30;99.90;;;;;;4968112;28;20560;-75
2023/09/03 05:15:44;;;;;;;4.95;1.58;;;16.30;99.90;;;;;;4972008;28;20022;-75
2023/09/03 05:18:13;;;;;;;4.72;2.20;;;16.30;99.90;;;;;;4968192;28;20022;-75
2023/09/03 05:20:38;;;;;;;3.55;1.83;;;16.30;99.90;;;;;;4969732;28;20015;-75
2023/09/03 05:23:10;;;;;;;4.55;1.80;;;16.30;99.90;;;;;;4953090;28;20058;-75
2023/09/03 05:25:41;;;;;;;5.72;1.90;;;16.30;99.90;;;;;;4967118;28;21469;-75
2023/09/03 05:28:07;;;;;;;6.70;1.92;;;16.30;99.90;;;;;;4968058;28;20023;-74
2023/09/03 05:30:35;;;;;;;4.82;1.98;;;16.40;99.90;;;;;;4969090;28;20030;-76
2023/09/03 05:33:07;;;;;;;4.07;2.10;;;16.40;99.90;;;;;;4951528;28;20576;-76
2023/09/03 05:35:32;;;;;;;2.65;1.58;;;16.40;99.90;;;;;;4952600;28;20042;-75
2023/09/03 05:37:58;;;;;;;3.00;1.40;;;16.50;99.90;;;;;;4949104;28;20042;-75
2023/09/03 05:40:23;;;;;;;2.67;1.80;;;16.50;99.90;;;;;;4953572;28;21200;-76
2023/09/03 05:42:52;;;;;;;3.38;1.88;;;16.50;99.90;;;;;;4969233;28;20034;-73
2023/09/03 05:45:18;;;;;;;5.13;1.80;;;16.60;99.90;;;;;;4967488;28;20041;-74
2023/09/03 05:47:46;;;;;;;4.03;1.77;;;16.60;99.90;;;;;;4952517;28;20560;-74
2023/09/03 05:50:21;;;;;;;3.92;1.85;;;16.60;99.90;;;;;;4966360;28;20038;-75
2023/09/03 05:52:49;;;;;;;2.42;1.70;;;16.70;99.90;;;;;;4970270;28;20030;-75
2023/09/03 05:55:17;;;;;;;3.53;1.95;;;16.70;99.90;;;;;;4969389;28;20509;-75
2023/09/03 05:57:46;;;;;;;3.13;1.30;;;16.80;99.90;;;;;;4954120;28;20019;-74
2023/09/03 06:00:12;;;;;;;5.05;1.73;;;16.80;99.90;;;;;;4967852;28;20039;-75
2023/09/03 06:02:43;;;;;;;3.70;1.55;;;16.80;99.90;;;;;;4966095;28;20143;-75
2023/09/03 06:05:12;;;;;;;3.42;1.90;;;16.80;99.90;;;;;;4968563;28;20026;-75
2023/09/03 06:07:37;;;;;;;5.30;1.90;;;16.90;99.90;;;;;;4968853;28;20034;-74
2023/09/03 06:10:06;;;;;;;5.22;1.55;;;16.90;99.90;;;;;;4968843;28;20031;-74
2023/09/03 06:12:32;;;;;;;4.82;2.25;;;17.00;99.90;;;;;;4970223;28;20508;-74
2023/09/03 06:14:58;;;;;;;4.13;1.95;;;17.00;99.90;;;;;;4971017;28;20027;-74
2023/09/03 06:17:23;;;;;;;4.07;1.95;;;17.10;99.90;;;;;;4970283;28;20022;-74
2023/09/03 06:19:49;;;;;;;4.10;1.75;;;17.20;99.90;;;;;;4968265;28;20122;-75
2023/09/03 06:22:15;;;;;;;4.85;1.95;;;17.30;99.90;;;;;;4944797;28;20042;-74
2023/09/03 06:24:40;;;;;;;4.25;2.55;;;17.40;99.90;;;;;;4969011;28;20027;-74
2023/09/03 06:27:06;;;;;;;5.47;2.30;;;17.40;99.90;;;;;;4969786;28;20034;-75
2023/09/03 06:29:31;;;;;;;3.65;1.98;;;17.50;99.90;;;;;;4969752;28;20030;-75
2023/09/03 06:32:00;;;;;;;4.55;2.17;;;17.60;99.90;;;;;;4950658;28;20089;-75
2023/09/03 06:34:28;;;;;;;3.90;1.70;;;17.60;99.90;;;;;;4974166;28;20122;-75
2023/09/03 06:36:57;;;;;;;6.15;1.90;;;17.70;99.90;;;;;;4950941;28;20046;-75
2023/09/03 06:39:26;;;;;;;5.95;2.22;;;17.70;99.90;;;;;;4967068;28;20038;-75
2023/09/03 06:41:52;;;;;;;6.03;2.08;;;17.80;99.90;;;;;;4964164;28;20066;-75
2023/09/03 06:44:21;;;;;;;3.70;2.00;;;17.80;99.90;;;;;;4968739;28;20058;-75
2023/09/03 06:46:47;;;;;;;4.45;1.73;;;17.90;99.90;;;;;;4969115;28;20477;-74
2023/09/03 06:49:12;;;;;;;2.72;1.50;;;17.90;99.90;;;;;;4953902;28;20042;-75
2023/09/03 06:51:38;;;;;;;3.78;1.77;;;17.90;99.90;;;;;;4965830;28;20074;-75
2023/09/03 06:54:03;;;;;;;4.72;1.75;;;18.00;99.90;;;;;;4968088;28;20388;-74
2023/09/03 06:56:29;;;;;;;3.78;1.67;;;18.10;99.90;;;;;;4951065;28;20034;-75
2023/09/03 06:58:55;;;;;;;4.82;1.83;;;18.10;99.90;;;;;;4951868;28;20876;-75
2023/09/03 07:01:20;;;;;;;3.30;1.63;;;18.20;99.90;;;;;;4966394;28;20026;-74
2023/09/03 07:03:46;;;;;;;5.45;1.73;;;18.30;99.90;;;;;;4966769;28;20031;-74
2023/09/03 07:06:11;;;;;;;4.10;1.52;;;18.30;99.90;;;;;;4970810;28;20031;-74
2023/09/03 07:08:43;;;;;;;6.47;1.48;;;18.40;99.90;;;;;;4957261;28;20121;-75
2023/09/03 07:11:08;;;;;;;2.67;1.65;;;18.40;99.90;;;;;;4969022;28;20074;-74
2023/09/03 07:13:34;;;;;;;3.47;1.92;;;18.50;99.90;;;;;;4969619;28;20497;-75
2023/09/03 07:16:04;;;;;;;3.17;1.85;;;18.50;99.90;;;;;;4968626;28;20455;-75
2023/09/03 07:18:30;;;;;;;4.80;1.92;;;18.60;99.90;;;;;;4972628;28;20085;-75
2023/09/03 07:21:06;;;;;;;4.80;2.40;;;18.60;99.90;;;;;;4973530;28;20034;-74
2023/09/03 07:23:32;;;;;;;4.03;2.40;;;18.70;99.90;;;;;;4973294;28;20030;-75
2023/09/03 07:26:05;;;;;;;4.63;2.38;;;18.70;99.90;;;;;;4955301;28;20031;-75
2023/09/03 07:28:32;;;;;;;4.72;2.90;;;18.80;99.90;;;;;;4953573;28;20027;-75
2023/09/03 07:30:58;;;;;;;3.78;2.88;;;18.90;99.90;;;;;;4966339;28;20039;-74
2023/09/03 07:33:23;;;;;;;5.45;2.50;;;19.00;99.90;;;;;;4964003;28;20110;-75
2023/09/03 07:35:49;;;;;;;6.72;2.72;;;19.00;99.90;;;;;;4966990;28;20042;-75
2023/09/03 07:38:14;;;;;;;4.55;2.60;;;19.00;99.90;;;;;;4968262;28;20081;-74
2023/09/03 07:40:40;;;;;;;5.47;2.65;;;19.10;99.90;;;;;;4966053;28;20023;-74
2023/09/03 07:43:06;;;;;;;6.15;2.80;;;19.10;99.90;;;;;;4959397;28;20130;-76
2023/09/03 07:45:38;;;;;;;5.15;2.55;;;19.10;99.90;;;;;;4948717;28;20068;-74
2023/09/03 07:48:03;;;;;;;3.70;2.47;;;19.10;99.90;;;;;;4943133;28;20101;-74
2023/09/03 07:50:31;;;;;;;5.43;2.83;;;19.10;99.90;;;;;;4954228;28;21327;-73
2023/09/03 07:52:58;;;;;;;5.95;3.25;;;19.20;99.90;;;;;;4945708;28;20085;-73
2023/09/03 07:55:30;;;;;;;6.90;3.05;;;19.30;99.90;;;;;;4962976;28;20113;-74
2023/09/03 07:57:59;;;;;;;3.92;2.47;;;19.30;99.90;;;;;;4968579;28;20027;-76
2023/09/03 08:00:25;;;;;;;6.00;2.83;;;19.40;99.90;;;;;;4967279;28;20497;-76
2023/09/03 08:02:50;;;;;;;4.68;2.90;;;19.40;99.90;;;;;;4961852;28;20029;-75
2023/09/03 08:05:17;;;;;;;5.35;2.33;;;19.40;99.90;;;;;;4944910;28;20038;-75
2023/09/03 08:07:45;;;;;;;5.03;2.47;;;19.50;99.90;;;;;;4964712;28;20038;-76
2023/09/03 08:10:11;;;;;;;3.80;2.58;;;19.50;99.90;;;;;;4966212;28;20085;-76
2023/09/03 08:12:39;;;;;;;4.22;2.60;;;19.60;99.90;;;;;;4970691;28;20026;-75
2023/09/03 08:15:07;;;;;;;5.03;2.45;;;19.70;99.90;;;;;;4964206;28;20114;-76
2023/09/03 08:17:32;;;;;;;3.67;2.55;;;19.70;99.90;;;;;;4949136;28;20054;-75
2023/09/03 08:19:58;;;;;;;8.60;2.67;;;19.80;99.90;;;;;;4968457;28;20061;-75
2023/09/03 08:22:24;;;;;;;4.18;2.50;;;19.80;99.90;;;;;;4967651;28;20505;-76
2023/09/03 08:24:50;;;;;;;3.80;2.40;;;19.90;99.90;;;;;;4951797;28;20434;-75
2023/09/03 08:27:27;;;;;;;3.83;2.28;;;19.90;99.90;;;;;;4966699;28;20034;-76
2023/09/03 08:29:53;;;;;;;3.53;2.05;;;19.90;99.90;;;;;;4971856;28;20054;-75
2023/09/03 08:32:22;;;;;;;4.75;2.97;;;20.00;99.90;;;;;;4951194;28;20571;-75
2023/09/03 08:34:47;;;;;;;3.85;2.80;;;20.10;99.90;;;;;;4970321;28;20019;-76
2023/09/03 08:37:13;;;;;;;5.43;2.55;;;20.10;99.90;;;;;;4974527;28;20026;-76
2023/09/03 08:39:39;;;;;;;5.38;2.25;;;20.20;99.90;;;;;;4974902;28;20023;-76
2023/09/03 08:42:06;;;;;;;5.55;2.35;;;20.20;99.90;;;;;;4973002;28;20046;-76
2023/09/03 08:44:45;;;;;;;7.47;2.75;;;20.30;99.90;;;;;;4973371;28;20031;-76
2023/09/03 08:47:15;;;;;;;6.05;2.90;;;20.30;99.90;;;;;;4972814;28;20054;-75
2023/09/03 08:49:42;;;;;;;4.68;2.15;;;20.30;99.90;;;;;;4970393;28;20026;-75
2023/09/03 08:52:09;;;;;;;4.72;2.33;;;20.40;99.90;;;;;;4972509;28;20034;-75
2023/09/03 08:54:38;;;;;;;4.70;2.10;;;20.50;99.90;;;;;;4964731;28;20023;-75
2023/09/03 08:57:11;;;;;;;3.70;2.80;;;20.60;99.90;;;;;;4952797;28;20027;-75
2023/09/03 08:59:40;;;;;;;3.65;2.33;;;20.60;99.90;;;;;;4966394;28;20081;-75
2023/09/03 09:02:12;;;;;;;4.22;2.75;;;20.70;99.90;;;;;;4967147;28;20118;-75
2023/09/03 09:04:42;;;;;;;4.53;2.47;;;20.70;99.90;;;;;;4969155;28;20030;-75
2023/09/03 09:07:09;;;;;;;5.45;3.05;;;20.80;99.90;;;;;;4954452;28;20051;-75
2023/09/03 09:09:38;;;;;;;5.70;2.80;;;20.90;99.90;;;;;;4967264;28;20397;-76
2023/09/03 09:12:20;;;;;;;5.15;3.13;;;21.00;99.90;;;;;;4947524;28;20125;-76
2023/09/03 09:14:53;;;;;;;6.32;3.05;;;21.00;99.90;;;;;;4948252;28;20054;-75
2023/09/03 09:17:19;;;;;;;5.68;3.15;;;21.10;99.90;;;;;;4954638;28;20112;-75
2023/09/03 09:19:51;;;;;;;5.85;3.13;;;21.20;99.90;;;;;;4955232;28;20058;-75
2023/09/03 09:22:26;;;;;;;6.40;2.47;;;21.30;99.90;;;;;;4959505;28;20513;-75
2023/09/03 09:24:57;;;;;;;5.20;3.17;;;21.30;99.90;;;;;;4974403;28;20074;-75
2023/09/03 09:27:23;;;;;;;3.20;2.47;;;21.40;99.90;;;;;;4973808;28;20524;-75
2023/09/03 09:29:49;;;;;;;6.40;3.28;;;21.40;99.90;;;;;;4960315;28;20023;-75
2023/09/03 09:32:20;;;;;;;3.95;2.17;;;21.50;99.90;;;;;;4970252;28;20062;-75
2023/09/03 09:34:54;;;;;;;7.60;2.55;;;21.60;99.90;;;;;;4972549;28;20567;-75
2023/09/03 09:37:23;;;;;;;4.95;2.22;;;21.60;99.90;;;;;;4968382;28;20019;-75
2023/09/03 09:39:49;;;;;;;3.45;2.70;;;21.70;99.90;;;;;;4961325;28;20030;-75
2023/09/03 09:42:21;;;;;;;7.03;2.33;;;21.80;99.90;;;;;;4970362;28;20531;-74
2023/09/03 09:44:59;;;;;;;4.10;2.70;;;21.90;99.90;;;;;;4969715;28;20058;-75
2023/09/03 09:47:25;;;;;;;4.50;2.33;;;21.90;99.90;;;;;;4973142;28;20494;-75
2023/09/03 09:49:54;;;;;;;3.28;2.25;;;22.00;99.90;;;;;;4973410;28;20034;-75
2023/09/03 09:52:20;;;;;;;3.80;2.53;;;22.10;99.90;;;;;;4971668;28;20030;-76
2023/09/03 09:54:48;;;;;;;5.63;3.10;;;22.10;99.90;;;;;;4969962;28;20034;-75
2023/09/03 09:57:27;;;;;;;3.97;2.58;;;22.20;99.90;;;;;;4969974;28;20022;-76
2023/09/03 10:00:01;;;;;;;5.78;2.60;;;22.20;99.90;;;;;;4969141;28;20026;-75
2023/09/03 10:02:27;;;;;;;4.25;2.60;;;22.30;99.90;;;;;;4972465;28;20469;-74
2023/09/03 10:04:53;;;;;;;3.25;2.17;;;22.40;99.90;;;;;;4953752;28;20031;-75
2023/09/03 10:07:19;;;;;;;4.88;2.38;;;22.50;99.90;;;;;;4970429;28;20473;-75
2023/09/03 10:09:46;;;;;;;3.90;2.28;;;22.50;99.90;;;;;;4970183;28;20462;-75
2023/09/03 10:12:12;;;;;;;7.30;2.70;;;22.60;99.90;;;;;;4958036;28;20397;-75
2023/09/03 10:14:39;;;;;;;4.95;2.33;;;22.70;99.90;;;;;;4968823;28;20407;-75
2023/09/03 10:17:09;;;;;;;3.50;2.35;;;22.70;99.90;;;;;;4969124;28;20038;-75
2023/09/03 10:22:31;;;;;;;5.43;2.78;;;22.80;99.90;;;;;;4969218;28;20058;-76
2023/09/03 10:25:06;;;;;;;3.15;2.17;;;22.80;99.90;;;;;;4971214;28;20217;-76
2023/09/03 10:27:36;;;;;;;4.20;2.38;;;22.80;99.90;;;;;;4963452;28;20110;-76
2023/09/03 10:30:09;;;;;;;3.97;2.30;;;22.80;99.90;;;;;;4948963;28;20090;-76
2023/09/03 10:32:42;;;;;;;2.65;2.10;;;22.90;99.90;;;;;;4965755;28;20078;-75
2023/09/03 10:35:09;;;;;;;10.57;3.10;;;22.90;99.90;;;;;;4966710;28;20169;-76
2023/09/03 10:37:39;;;;;;;3.90;1.90;;;23.00;99.90;;;;;;4967521;28;20039;-77
2023/09/03 10:40:25;;;;;;;3.45;1.80;;;23.00;99.90;;;;;;4952674;28;20680;-76
2023/09/03 10:43:18;;;;;;;2.90;1.77;;;23.10;99.90;;;;;;4953512;28;20562;-76
2023/09/03 10:46:08;;;;;;;5.60;2.10;;;23.20;99.90;;;;;;4970590;28;20401;-75
2023/09/03 10:48:35;;;;;;;2.67;1.70;;;23.20;99.90;;;;;;4967920;28;20044;-75
2023/09/03 10:51:01;;;;;;;6.00;1.98;;;23.20;99.90;;;;;;4969875;28;20572;-76
2023/09/03 10:53:37;;;;;;;2.65;1.80;;;23.20;99.90;;;;;;4971822;28;20078;-77
2023/09/03 10:56:17;;;;;;;2.33;1.65;;;23.30;99.90;;;;;;4957780;28;20343;-76
2023/09/03 10:59:00;;;;;;;6.18;2.60;;;23.40;99.90;;;;;;4967589;28;20026;-77
2023/09/03 11:01:32;;;;;;;2.22;1.30;;;23.40;99.90;;;;;;4967847;28;20553;-75
2023/09/03 11:03:59;;;;;;;2.20;0.90;;;23.40;99.90;;;;;;4970247;28;20023;-75
2023/09/03 11:06:27;;;;;;;4.35;1.30;;;23.50;99.90;;;;;;4968819;28;20049;-75
2023/09/03 11:08:59;;;;;;;6.68;1.67;;;23.50;99.90;;;;;;4968678;28;20499;-78
2023/09/03 11:11:27;;;;;;;2.90;1.30;;;23.60;99.90;;;;;;4967589;28;20057;-77
2023/09/03 11:13:53;;;;;;;2.38;1.75;;;23.70;99.90;;;;;;4970767;28;20475;-77
2023/09/03 11:16:35;;;;;;;2.38;1.42;;;23.70;99.90;;;;;;4968842;28;20035;-76
2023/09/03 11:19:07;;;;;;;2.38;1.15;;;23.70;99.90;;;;;;4965520;28;20106;-75
2023/09/03 11:21:34;;;;;;;1.77;1.60;;;23.80;99.90;;;;;;4961146;28;20042;-77
2023/09/03 11:24:14;;;;;;;3.72;1.30;;;23.80;99.90;;;;;;4964337;28;20023;-77
2023/09/03 11:26:40;;;;;;;2.45;1.10;;;23.80;99.90;;;;;;4968729;28;20504;-76
2023/09/03 11:29:25;;;;;;;2.13;1.55;;;23.80;99.90;;;;;;4968968;28;20106;-77
2023/09/03 11:31:54;;;;;;;2.22;1.42;;;23.80;99.90;;;;;;4969483;28;20469;-77
2023/09/03 11:34:23;;;;;;;1.88;1.30;;;23.80;99.90;;;;;;4973470;28;20066;-76
2023/09/03 11:36:49;;;;;;;2.40;1.13;;;23.80;99.90;;;;;;4970342;28;20027;-76
2023/09/03 11:39:22;;;;;;;2.33;1.17;;;23.80;99.90;;;;;;4970218;28;20061;-77
2023/09/03 11:41:50;;;;;;;1.98;1.15;;;23.80;99.90;;;;;;4965636;28;20038;-77
2023/09/03 11:44:20;;;;;;;1.80;1.20;;;23.90;99.90;;;;;;4970752;28;20035;-76
2023/09/03 11:47:03;;;;;;;5.10;1.55;;;23.90;99.90;;;;;;4969718;28;20493;-76
2023/09/03 11:49:29;;;;;;;3.33;1.98;;;24.00;99.90;;;;;;4969167;28;20092;-76
2023/09/03 11:52:16;;;;;;;2.90;1.60;;;24.00;99.90;;;;;;4967509;28;20039;-76
2023/09/03 11:54:42;;;;;;;2.30;1.40;;;24.10;99.90;;;;;;4970876;28;20027;-77
2023/09/03 11:57:28;;;;;;;2.20;1.60;;;24.10;99.90;;;;;;4969015;28;20037;-77
2023/09/03 11:59:54;;;;;;;1.77;1.02;;;24.20;99.90;;;;;;4966948;28;20039;-77
2023/09/03 12:02:21;;;;;;;2.45;1.10;;;24.30;99.90;;;;;;4967133;28;20039;-76
2023/09/03 12:04:52;;;;;;;3.33;1.30;;;24.30;99.90;;;;;;4966678;28;20388;-77
2023/09/03 12:07:21;;;;;;;2.03;0.90;;;24.30;99.90;;;;;;4966535;28;20019;-77
2023/09/03 12:09:59;;;;;;;1.88;1.45;;;24.30;99.90;;;;;;4969144;28;20114;-77
2023/09/03 12:12:24;;;;;;;1.10;0.80;;;24.30;99.90;;;;;;4967721;28;20030;-76
2023/09/03 12:14:50;;;;;;;2.63;1.33;;;24.30;99.90;;;;;;4965080;28;20485;-76
2023/09/03 12:17:26;;;;;;;1.13;1.00;;;24.30;99.90;;;;;;4959278;28;20037;-76
2023/09/03 12:19:52;;;;;;;6.30;1.35;;;24.40;99.90;;;;;;4966030;28;20496;-76
2023/09/03 12:22:27;;;;;;;1.98;1.00;;;24.40;99.90;;;;;;4966959;28;20164;-76
2023/09/03 12:25:10;;;;;;;1.83;0.88;;;24.40;99.90;;;;;;4968550;28;20101;-75
2023/09/03 12:27:49;;;;;;;2.67;1.30;;;24.40;99.90;;;;;;4965042;28;20033;-76
2023/09/03 12:30:19;;;;;;;2.67;1.00;;;24.40;99.80;;;;;;4963409;28;20027;-76
2023/09/03 12:32:45;;;;;;;2.70;0.80;;;24.40;99.90;;;;;;4967029;28;20519;-76
2023/09/03 12:35:16;;;;;;;2.72;1.00;;;24.40;99.90;;;;;;4963823;28;20042;-76
2023/09/03 12:37:45;;;;;;;2.05;0.98;;;24.40;99.60;;;;;;4962339;28;20362;-76
2023/09/03 12:40:14;;;;;;;1.10;0.70;;;24.40;99.30;;;;;;4967531;28;20185;-76
2023/09/03 12:42:42;;;;;;;1.23;0.90;;;24.50;99.20;;;;;;4962791;28;20118;-76
2023/09/03 12:45:08;;;;;;;0.98;0.88;;;24.40;98.90;;;;;;4954803;28;20632;-73
2023/09/03 12:47:42;;;;;;;4.43;0.93;;;24.40;99.20;;;;;;4972449;28;20019;-75
2023/09/03 12:50:08;;;;;;;0.85;0.70;;;24.40;99.10;;;;;;4971161;28;20027;-74
2023/09/03 12:52:36;;;;;;;2.60;0.88;;;24.40;98.90;;;;;;4971952;28;20527;-75
2023/09/03 12:55:02;;;;;;;2.90;1.23;;;24.40;98.90;;;;;;4969168;28;20393;-76
2023/09/03 12:57:29;;;;;;;1.30;0.85;;;24.40;98.90;;;;;;4967200;28;20026;-76
2023/09/03 12:59:54;;;;;;;0.93;0.77;;;24.50;98.40;;;;;;4968069;28;20490;-76
2023/09/03 13:02:20;;;;;;;2.00;0.85;;;24.50;98.20;;;;;;4968655;28;20116;-74